TimeMDT,TemperatureF,Dew PointF,Humidity,Sea Level PressureIn,VisibilityMPH,Wind Direction,Wind SpeedMPH,Gust SpeedMPH,PrecipitationIn,Events,Conditions,WindDirDegrees,DateUTC
12:14 AM,41.0,28.4,61,30.03,10.0,West,10.4,-,N/A,,Clear,270,2013-09-28 06:14:00
12:35 AM,42.8,28.4,57,30.04,10.0,West,12.7,18.4,N/A,,Clear,280,2013-09-28 06:35:00
12:55 AM,42.8,26.6,53,30.03,10.0,West,23.0,29.9,N/A,,Clear,270,2013-09-28 06:55:00
1:14 AM,42.8,26.6,53,30.04,10.0,West,12.7,-,N/A,,Scattered Clouds,270,2013-09-28 07:14:00
1:35 AM,41.0,30.2,65,30.05,10.0,WNW,12.7,-,N/A,,Scattered Clouds,290,2013-09-28 07:35:00
1:55 AM,42.8,28.4,57,30.05,10.0,West,11.5,-,N/A,,Clear,270,2013-09-28 07:55:00
2:15 AM,42.8,23.0,46,30.06,10.0,West,10.4,-,N/A,,Clear,280,2013-09-28 08:15:00
2:35 AM,41.0,23.0,49,30.06,10.0,NW,4.6,-,N/A,,Clear,310,2013-09-28 08:35:00
2:55 AM,44.6,19.4,37,30.05,10.0,NW,4.6,-,N/A,,Clear,320,2013-09-28 08:55:00
3:15 AM,42.8,21.2,42,30.06,10.0,West,5.8,-,N/A,,Clear,270,2013-09-28 09:15:00
3:35 AM,42.8,21.2,42,30.06,10.0,Calm,Calm,-,N/A,,Clear,0,2013-09-28 09:35:00
3:55 AM,42.8,21.2,42,30.07,10.0,West,15.0,-,N/A,,Clear,260,2013-09-28 09:55:00
4:15 AM,44.6,19.4,37,30.07,10.0,West,16.1,20.7,N/A,,Clear,270,2013-09-28 10:15:00
4:35 AM,44.6,19.4,37,30.07,10.0,West,5.8,-,N/A,,Clear,280,2013-09-28 10:35:00
4:55 AM,44.6,19.4,37,30.07,10.0,WSW,5.8,-,N/A,,Clear,250,2013-09-28 10:55:00
5:15 AM,42.8,21.2,42,30.07,10.0,West,9.2,-,N/A,,Clear,270,2013-09-28 11:15:00
5:35 AM,42.8,21.2,42,30.07,10.0,West,8.1,-,N/A,,Clear,260,2013-09-28 11:35:00
5:47 AM,42.8,21.2,42,30.07,40.0,WSW,5.8,-,N/A,,Clear,250,2013-09-28 11:47:00
5:55 AM,42.8,21.2,42,30.07,10.0,WSW,8.1,-,N/A,,Clear,250,2013-09-28 11:55:00
6:47 AM,42.8,19.4,39,30.08,40.0,SSW,3.5,-,N/A,,Partly Cloudy,210,2013-09-28 12:47:00
7:55 AM,41.0,28.4,61,30.12,40.0,ESE,5.8,-,N/A,,Partly Cloudy,120,2013-09-28 13:55:00
8:47 AM,48.2,24.8,40,30.14,40.0,Calm,Calm,-,N/A,,Partly Cloudy,0,2013-09-28 14:47:00
9:55 AM,51.8,24.8,35,30.14,70.0,Variable,4.6,-,N/A,,Partly Cloudy,0,2013-09-28 15:55:00
10:47 AM,55.4,21.2,26,30.15,70.0,Variable,5.8,-,N/A,,Partly Cloudy,0,2013-09-28 16:47:00
10:55 AM,51.8,24.8,35,30.14,70.0,Variable,4.6,-,N/A,,Partly Cloudy,0,2013-09-28 16:55:00
11:47 AM,59.0,21.2,23,30.15,70.0,SE,3.5,-,N/A,,Partly Cloudy,140,2013-09-28 17:47:00
1:50 PM,66.2,23.0,19,30.12,70.0,WNW,21.9,29.9,N/A,,Partly Cloudy,290,2013-09-28 19:50:00
2:47 PM,66.2,21.2,18,30.10,70.0,WNW,23.0,32.2,N/A,,Partly Cloudy,290,2013-09-28 20:47:00
3:47 PM,68.0,23.0,18,30.11,70.0,NW,18.4,27.6,N/A,,Partly Cloudy,310,2013-09-28 21:47:00
4:52 PM,68.0,26.6,21,30.12,70.0,NW,12.7,16.1,N/A,,Partly Cloudy,310,2013-09-28 22:52:00
5:47 PM,68.0,30.2,24,30.12,60.0,WNW,10.4,-,N/A,,Partly Cloudy,290,2013-09-28 23:47:00
6:47 PM,57.2,35.6,44,30.14,60.0,WSW,5.8,-,N/A,,Partly Cloudy,250,2013-09-29 00:47:00
8:47 PM,53.6,32.0,44,30.17,30.0,WSW,5.8,-,N/A,,Partly Cloudy,250,2013-09-29 02:47:00
9:48 PM,51.8,32.0,47,30.17,30.0,WSW,5.8,-,N/A,,Clear,250,2013-09-29 03:48:00
11:15 PM,50.0,32.0,50,30.16,10.0,West,9.2,-,N/A,,Clear,260,2013-09-29 05:15:00
11:35 PM,51.8,30.2,44,30.16,10.0,West,8.1,-,N/A,,Clear,270,2013-09-29 05:35:00
11:55 PM,51.8,28.4,41,30.15,10.0,West,9.2,-,N/A,,Clear,270,2013-09-29 05:55:00